Time;durP1;ratioP1;P1;durP2;ratioP2;P2;SDS_P1;SDS_P2;PMS_P1;PMS_P2;Temp;Humidity;BMP_temperature;BMP_pressure;BME280_temperature;BME280_humidity;BME280_pressure;Samples;Min_cycle;Max_cycle;Signal;HPM_P1;HPM_P2
2023/06/04 00:01:20;;;;;;;1999.90;999.90;;;12.40;72.70;;;;;;5034668;28;20031;-88
2023/06/04 00:03:45;;;;;;;1999.90;999.90;;;12.50;72.50;;;;;;5041993;28;20030;-89
2023/06/04 00:06:11;;;;;;;1999.90;999.90;;;12.50;72.40;;;;;;5032780;28;20036;-87
2023/06/04 00:08:38;;;;;;;1999.90;999.90;;;12.40;72.40;;;;;;5036967;28;20040;-87
2023/06/04 00:11:03;;;;;;;1999.90;999.90;;;12.30;73.20;;;;;;5040664;28;20059;-87
2023/06/04 00:13:29;;;;;;;1999.90;999.90;;;12.20;73.80;;;;;;5015640;28;20053;-89
2023/06/04 00:15:55;;;;;;;1999.90;999.90;;;12.30;73.40;;;;;;5034367;28;20038;-88
2023/06/04 00:18:20;;;;;;;1999.90;999.90;;;12.30;73.40;;;;;;5034694;28;20021;-87
2023/06/04 00:20:46;;;;;;;1999.90;999.90;;;12.30;73.40;;;;;;5032399;28;20045;-89
2023/06/04 00:23:11;;;;;;;1999.90;999.90;;;12.40;73.10;;;;;;5024257;28;20029;-89
2023/06/04 00:25:37;;;;;;;1999.90;999.90;;;12.40;72.90;;;;;;5034680;28;20091;-89
2023/06/04 00:28:03;;;;;;;1999.90;999.90;;;12.40;72.80;;;;;;5019440;28;20150;-89
2023/06/04 00:30:29;;;;;;;1999.90;999.90;;;12.40;72.80;;;;;;5036571;28;20037;-89
2023/06/04 00:32:54;;;;;;;1999.90;999.90;;;12.40;72.90;;;;;;5033587;28;20034;-88
2023/06/04 00:35:20;;;;;;;1999.90;999.90;;;12.30;73.80;;;;;;5037449;28;20028;-88
2023/06/04 00:37:46;;;;;;;1999.90;999.90;;;12.40;73.00;;;;;;5036799;28;20029;-88
2023/06/04 00:40:12;;;;;;;1999.90;999.90;;;12.30;73.30;;;;;;5032497;28;20025;-88
2023/06/04 00:42:37;;;;;;;1999.90;999.90;;;12.20;73.50;;;;;;5041093;28;20124;-87
2023/06/04 00:45:05;;;;;;;1999.90;999.90;;;12.10;73.80;;;;;;5040486;28;20108;-88
2023/06/04 00:47:31;;;;;;;1999.90;999.90;;;12.10;73.80;;;;;;5041232;28;20492;-88
2023/06/04 00:49:57;;;;;;;1999.90;999.90;;;12.00;73.80;;;;;;5046739;28;20049;-89
2023/06/04 00:52:24;;;;;;;1999.90;999.90;;;12.00;74.40;;;;;;5037786;28;20421;-89
2023/06/04 00:54:50;;;;;;;1999.90;999.90;;;11.90;74.80;;;;;;5044165;28;20032;-89
2023/06/04 00:57:16;;;;;;;1999.90;999.90;;;12.00;74.60;;;;;;5042767;28;20080;-88
2023/06/04 00:59:42;;;;;;;1999.90;999.90;;;12.10;74.10;;;;;;5035936;28;20053;-87
2023/06/04 01:02:22;;;;;;;518.17;484.30;;;12.10;73.90;;;;;;5042812;28;20025;-87
2023/06/04 01:05:12;;;;;;;722.53;676.85;;;12.00;74.30;;;;;;5037143;28;20060;-88
2023/06/04 01:07:40;;;;;;;788.10;738.83;;;12.00;74.40;;;;;;5039397;28;20025;-87
2023/06/04 01:10:07;;;;;;;1369.20;845.67;;;12.00;74.20;;;;;;5040570;28;20064;-87
2023/06/04 01:12:33;;;;;;;1400.47;876.05;;;12.00;73.90;;;;;;5036188;28;20508;-88
2023/06/04 01:14:59;;;;;;;1999.90;999.90;;;12.00;73.80;;;;;;5044422;28;20108;-88
2023/06/04 01:17:38;;;;;;;1347.30;824.72;;;12.00;74.00;;;;;;5036139;28;20026;-90
2023/06/04 01:20:11;;;;;;;817.70;768.92;;;11.90;75.10;;;;;;5043912;28;20048;-88
2023/06/04 01:22:59;;;;;;;757.65;710.65;;;11.80;74.80;;;;;;5039337;28;20056;-88
2023/06/04 01:25:43;;;;;;;825.10;775.50;;;11.70;75.20;;;;;;5031768;28;20049;-88
2023/06/04 01:28:12;;;;;;;648.60;607.15;;;11.70;75.00;;;;;;5032593;28;20067;-89
2023/06/04 01:30:45;;;;;;;777.17;729.70;;;11.70;74.90;;;;;;5040389;28;20116;-88
2023/06/04 01:33:13;;;;;;;785.47;738.45;;;11.70;74.60;;;;;;5036515;28;20029;-88
2023/06/04 01:35:39;;;;;;;779.70;731.70;;;11.70;75.00;;;;;;5020306;28;20037;-87
2023/06/04 01:38:05;;;;;;;778.20;733.58;;;11.80;74.30;;;;;;5036932;28;20124;-87
2023/06/04 01:40:31;;;;;;;678.03;635.60;;;11.70;74.50;;;;;;5038567;28;20051;-88
2023/06/04 01:42:58;;;;;;;1637.90;878.80;;;11.70;74.70;;;;;;5040141;28;20814;-88
2023/06/04 01:45:27;;;;;;;835.88;783.67;;;11.60;74.70;;;;;;5037963;28;20679;-88
2023/06/04 01:47:53;;;;;;;837.33;786.15;;;11.60;75.00;;;;;;5041618;28;20406;-87
2023/06/04 01:50:19;;;;;;;684.67;645.40;;;11.60;74.80;;;;;;5034767;28;20068;-88
2023/06/04 01:52:45;;;;;;;823.35;771.63;;;11.60;74.80;;;;;;5056195;28;20029;-88
2023/06/04 01:55:17;;;;;;;794.55;746.95;;;11.50;75.00;;;;;;5054331;28;20026;-89
2023/06/04 01:57:47;;;;;;;829.05;777.95;;;11.50;74.70;;;;;;5053947;28;20021;-87
2023/06/04 02:00:13;;;;;;;826.47;776.50;;;11.50;75.50;;;;;;5062394;28;20116;-88
2023/06/04 02:02:43;;;;;;;727.53;685.90;;;11.40;75.20;;;;;;5057961;28;20083;-87
2023/06/04 02:05:10;;;;;;;760.78;715.88;;;11.40;74.30;;;;;;5063033;28;20397;-90
2023/06/04 02:07:40;;;;;;;798.10;749.47;;;11.40;74.60;;;;;;5052284;28;20105;-88
2023/06/04 02:10:10;;;;;;;821.42;772.17;;;11.20;74.80;;;;;;5060161;28;20029;-88
2023/06/04 02:12:40;;;;;;;775.55;729.95;;;11.30;74.30;;;;;;5055997;28;20062;-88
2023/06/04 02:15:07;;;;;;;608.90;576.97;;;11.30;74.20;;;;;;5055358;28;20051;-87
2023/06/04 02:17:37;;;;;;;770.47;724.90;;;11.40;73.50;;;;;;5077827;28;20041;-86
2023/06/04 02:20:05;;;;;;;787.97;741.85;;;11.30;73.70;;;;;;5061118;28;20033;-88
2023/06/04 02:22:31;;;;;;;710.75;668.80;;;11.20;73.60;;;;;;5051425;28;20026;-87
2023/06/04 02:24:57;;;;;;;760.45;716.33;;;11.20;73.40;;;;;;5060369;28;20057;-88
2023/06/04 02:27:23;;;;;;;756.47;713.05;;;11.10;73.50;;;;;;5059052;28;20045;-88
2023/06/04 02:29:48;;;;;;;796.97;750.13;;;11.10;73.80;;;;;;5045048;28;20512;-87
2023/06/04 02:32:14;;;;;;;665.63;629.55;;;11.00;74.40;;;;;;5049809;28;20029;-87
2023/06/04 02:34:40;;;;;;;777.17;732.63;;;11.00;74.10;;;;;;5054312;28;20109;-87
2023/06/04 02:37:06;;;;;;;751.65;708.65;;;10.90;74.10;;;;;;5041347;28;20452;-89
2023/06/04 02:39:31;;;;;;;775.70;730.90;;;10.80;74.60;;;;;;5033491;28;20033;-88
2023/06/04 02:41:57;;;;;;;780.22;734.92;;;10.80;74.30;;;;;;5034531;28;20516;-89
2023/06/04 02:44:23;;;;;;;684.33;646.78;;;10.80;74.50;;;;;;5031367;28;20064;-86
2023/06/04 02:46:48;;;;;;;777.40;731.78;;;10.80;74.20;;;;;;5030839;28;20515;-88
2023/06/04 02:49:14;;;;;;;703.42;664.75;;;10.80;74.00;;;;;;5034317;28;20092;-88
2023/06/04 02:51:45;;;;;;;761.97;718.30;;;10.80;74.00;;;;;;5042468;28;20396;-87
2023/06/04 02:54:11;;;;;;;739.55;697.53;;;10.70;74.10;;;;;;5036333;28;20033;-88
2023/06/04 02:56:37;;;;;;;709.40;669.90;;;10.60;74.10;;;;;;5028406;28;20556;-89
2023/06/04 02:59:03;;;;;;;737.83;695.92;;;10.60;73.80;;;;;;5034739;28;20035;-87
2023/06/04 03:01:29;;;;;;;770.83;726.65;;;10.50;73.90;;;;;;5042378;28;20041;-88
2023/06/04 03:03:56;;;;;;;766.45;721.58;;;10.50;73.70;;;;;;5037315;28;20038;-88
2023/06/04 03:06:23;;;;;;;1650.43;890.22;;;10.50;73.50;;;;;;5036165;28;20033;-89
2023/06/04 03:08:51;;;;;;;998.40;721.47;;;10.50;73.20;;;;;;5040353;28;20068;-88
2023/06/04 03:11:20;;;;;;;762.47;719.20;;;10.50;72.60;;;;;;5039749;28;20052;-88
2023/06/04 03:13:46;;;;;;;753.78;712.00;;;10.50;72.50;;;;;;5047844;28;20029;-88
2023/06/04 03:16:12;;;;;;;709.63;672.17;;;10.50;73.00;;;;;;5039296;28;20374;-88
2023/06/04 03:18:39;;;;;;;710.45;672.00;;;10.40;72.40;;;;;;5036303;28;20033;-88
2023/06/04 03:21:05;;;;;;;689.85;653.10;;;10.50;72.30;;;;;;5033502;28;20083;-88
2023/06/04 03:23:32;;;;;;;685.75;649.50;;;10.40;72.40;;;;;;5040955;28;20067;-87
2023/06/04 03:25:57;;;;;;;674.13;637.72;;;10.40;72.80;;;;;;5036862;28;20033;-88
2023/06/04 03:28:23;;;;;;;626.50;594.40;;;10.40;72.80;;;;;;5023371;28;20037;-88
2023/06/04 03:30:49;;;;;;;724.90;684.50;;;10.40;72.40;;;;;;5035957;28;20029;-88
2023/06/04 03:33:14;;;;;;;629.42;597.20;;;10.40;72.60;;;;;;5033836;28;20374;-88
2023/06/04 03:35:41;;;;;;;642.40;609.55;;;10.40;71.90;;;;;;5033301;28;20033;-87
2023/06/04 03:38:07;;;;;;;738.80;697.42;;;10.40;72.10;;;;;;5029077;28;20112;-87
2023/06/04 03:40:32;;;;;;;636.63;603.70;;;10.40;72.30;;;;;;5034137;28;20577;-87
2023/06/04 03:42:58;;;;;;;688.83;652.60;;;10.40;71.80;;;;;;5039627;28;20034;-88
2023/06/04 03:45:23;;;;;;;626.10;593.83;;;10.40;71.90;;;;;;5035040;28;20068;-88
2023/06/04 03:47:49;;;;;;;661.72;627.97;;;10.40;72.20;;;;;;5041442;28;20032;-87
2023/06/04 03:50:15;;;;;;;527.63;501.90;;;10.40;71.90;;;;;;5038739;28;20382;-86
2023/06/04 03:52:40;;;;;;;664.05;630.83;;;10.50;71.30;;;;;;5034200;28;20037;-87
2023/06/04 03:55:07;;;;;;;672.90;636.67;;;10.50;71.70;;;;;;5032698;28;20029;-88
2023/06/04 03:57:34;;;;;;;670.38;634.42;;;10.50;71.20;;;;;;5019574;28;20492;-87
2023/06/04 04:00:00;;;;;;;730.80;689.40;;;10.50;72.00;;;;;;5034309;28;20119;-87
2023/06/04 04:02:25;;;;;;;618.50;587.67;;;10.60;71.20;;;;;;5041274;28;20068;-87
2023/06/04 04:04:53;;;;;;;623.97;590.50;;;10.50;71.20;;;;;;5032223;28;20179;-88
2023/06/04 04:07:20;;;;;;;569.22;542.28;;;10.60;70.90;;;;;;5043151;28;20108;-87
2023/06/04 04:09:46;;;;;;;630.47;599.08;;;10.60;69.80;;;;;;5037430;28;20026;-87
2023/06/04 04:12:12;;;;;;;606.72;577.15;;;10.80;69.50;;;;;;5034153;28;20382;-87
2023/06/04 04:14:37;;;;;;;499.73;475.08;;;10.70;69.40;;;;;;5043417;28;20104;-86
2023/06/04 04:17:03;;;;;;;601.55;572.30;;;10.80;69.00;;;;;;5037032;28;20025;-87
2023/06/04 04:19:29;;;;;;;622.10;591.80;;;10.90;68.50;;;;;;5040161;28;20041;-86
2023/06/04 04:21:55;;;;;;;615.40;586.00;;;10.80;68.40;;;;;;5039425;28;20472;-87
2023/06/04 04:24:24;;;;;;;607.60;577.90;;;10.90;68.00;;;;;;5036788;28;20371;-87
2023/06/04 04:26:53;;;;;;;727.50;686.53;;;11.00;67.70;;;;;;5043109;28;20029;-87
2023/06/04 04:29:22;;;;;;;617.83;587.05;;;11.00;67.60;;;;;;5039544;28;20268;-89
2023/06/04 04:31:49;;;;;;;542.70;515.75;;;11.10;67.70;;;;;;5033521;28;20410;-87
2023/06/04 04:34:14;;;;;;;610.80;580.92;;;11.20;66.90;;;;;;5038758;28;20114;-87
2023/06/04 04:36:40;;;;;;;636.03;604.80;;;11.20;67.20;;;;;;5035862;28;20488;-87
2023/06/04 04:39:07;;;;;;;644.67;611.65;;;11.20;67.80;;;;;;5046439;28;20059;-87
2023/06/04 04:41:32;;;;;;;665.92;631.38;;;11.20;66.70;;;;;;5035213;28;20033;-88
2023/06/04 04:44:05;;;;;;;665.60;631.38;;;11.30;66.60;;;;;;5035411;28;20087;-88
2023/06/04 04:46:31;;;;;;;635.25;603.58;;;11.40;66.00;;;;;;5033868;28;20032;-88
2023/06/04 04:48:56;;;;;;;675.25;639.88;;;11.40;66.10;;;;;;5032081;28;20405;-88
2023/06/04 04:51:22;;;;;;;715.13;676.42;;;11.40;66.40;;;;;;5032965;28;20064;-89
2023/06/04 04:53:49;;;;;;;707.08;667.97;;;11.50;65.10;;;;;;5032443;28;20087;-87
2023/06/04 04:56:14;;;;;;;710.22;671.97;;;11.50;65.30;;;;;;5032948;28;20063;-88
2023/06/04 04:58:40;;;;;;;746.20;703.13;;;11.70;65.00;;;;;;5016612;28;20030;-89
2023/06/04 05:01:06;;;;;;;650.90;616.08;;;11.60;64.80;;;;;;5035685;28;20040;-89
2023/06/04 05:03:31;;;;;;;741.33;697.65;;;11.70;64.20;;;;;;5028218;28;20098;-88
2023/06/04 05:05:57;;;;;;;691.15;651.95;;;11.70;64.30;;;;;;5021522;28;20582;-89
2023/06/04 05:08:23;;;;;;;626.63;592.88;;;11.80;65.10;;;;;;5036631;28;20044;-90
2023/06/04 05:10:50;;;;;;;700.33;661.78;;;11.80;64.00;;;;;;5026082;28;20037;-87
2023/06/04 05:13:17;;;;;;;983.10;704.67;;;11.90;63.90;;;;;;5040239;28;20477;-87
2023/06/04 05:15:43;;;;;;;721.67;679.30;;;11.90;63.70;;;;;;5033122;28;20025;-87
2023/06/04 05:18:08;;;;;;;650.22;612.63;;;12.00;64.10;;;;;;5034075;28;20076;-87
2023/06/04 05:20:37;;;;;;;689.78;647.83;;;12.10;63.50;;;;;;5033157;28;20071;-89
2023/06/04 05:23:03;;;;;;;645.85;604.53;;;12.20;63.80;;;;;;5036786;28;20037;-87
2023/06/04 05:25:30;;;;;;;696.85;653.70;;;12.30;63.20;;;;;;5036980;28;20040;-86
2023/06/04 05:27:58;;;;;;;637.47;599.03;;;12.40;63.30;;;;;;5034862;28;20042;-87
2023/06/04 05:30:24;;;;;;;702.83;659.75;;;12.40;62.90;;;;;;5036796;28;20036;-87
2023/06/04 05:32:50;;;;;;;592.28;553.35;;;12.40;63.30;;;;;;5042128;28;20083;-87
2023/06/04 05:35:16;;;;;;;656.58;616.88;;;12.50;62.60;;;;;;5030293;28;20033;-87
2023/06/04 05:37:45;;;;;;;642.22;604.30;;;12.50;63.20;;;;;;5040011;28;20029;-87
2023/06/04 05:40:11;;;;;;;702.80;660.08;;;12.60;63.70;;;;;;5039662;28;20025;-86
2023/06/04 05:42:38;;;;;;;745.83;700.30;;;12.60;64.50;;;;;;5037846;28;20032;-87
2023/06/04 05:45:05;;;;;;;767.00;721.15;;;12.70;63.30;;;;;;5045140;28;20111;-87
2023/06/04 05:47:31;;;;;;;736.92;691.05;;;12.70;63.70;;;;;;5035764;28;20060;-87
2023/06/04 05:49:57;;;;;;;811.72;760.92;;;12.80;63.80;;;;;;5039863;28;20033;-86
2023/06/04 05:52:23;;;;;;;788.20;739.55;;;12.80;64.00;;;;;;5037848;28;20048;-86
2023/06/04 05:54:49;;;;;;;718.15;674.78;;;12.90;65.00;;;;;;5036972;28;20064;-87
2023/06/04 05:57:15;;;;;;;823.65;771.13;;;13.00;64.20;;;;;;5043991;28;20056;-88
2023/06/04 05:59:40;;;;;;;809.95;759.22;;;13.10;64.40;;;;;;5038640;28;20059;-87
2023/06/04 06:02:07;;;;;;;685.10;644.08;;;13.20;63.40;;;;;;5040812;28;20079;-86
2023/06/04 06:04:36;;;;;;;768.92;719.20;;;13.30;63.20;;;;;;5043794;28;20040;-86
2023/06/04 06:07:01;;;;;;;775.00;726.83;;;13.40;62.90;;;;;;5037845;28;20056;-88
2023/06/04 06:09:27;;;;;;;1677.65;915.53;;;13.50;64.90;;;;;;5038343;28;20038;-87
2023/06/04 06:11:53;;;;;;;824.72;771.10;;;13.50;62.70;;;;;;5042460;28;20109;-88
2023/06/04 06:14:19;;;;;;;832.75;778.83;;;13.60;64.40;;;;;;5033413;28;20480;-86
2023/06/04 06:16:45;;;;;;;609.60;575.97;;;13.70;62.80;;;;;;5042526;28;20221;-87
2023/06/04 06:19:11;;;;;;;750.67;699.45;;;13.80;62.20;;;;;;5024508;28;20040;-86
2023/06/04 06:21:36;;;;;;;821.83;770.65;;;13.80;63.20;;;;;;5032870;28;20048;-87
2023/06/04 06:24:03;;;;;;;780.58;725.03;;;13.90;63.80;;;;;;5041721;28;20060;-86
2023/06/04 06:26:29;;;;;;;837.85;781.53;;;14.10;63.50;;;;;;5037298;28;20095;-87
2023/06/04 06:28:55;;;;;;;739.58;688.22;;;14.10;62.40;;;;;;5040524;28;20052;-88
2023/06/04 06:31:21;;;;;;;749.15;693.95;;;14.20;62.70;;;;;;5039137;28;20109;-88
2023/06/04 06:33:47;;;;;;;782.83;729.25;;;14.30;62.50;;;;;;5035184;28;20471;-87
2023/06/04 06:36:13;;;;;;;856.38;796.40;;;14.40;62.40;;;;;;5042102;28;20037;-86
2023/06/04 06:38:39;;;;;;;808.50;755.10;;;14.40;61.80;;;;;;5035090;28;20033;-86
2023/06/04 06:41:05;;;;;;;884.35;824.35;;;14.50;63.10;;;;;;5035466;28;20469;-88
2023/06/04 06:43:31;;;;;;;757.17;707.20;;;14.50;63.80;;;;;;5043057;28;20057;-88
2023/06/04 06:45:57;;;;;;;850.80;790.10;;;14.80;62.10;;;;;;5039377;28;20037;-87
2023/06/04 06:48:23;;;;;;;767.25;710.50;;;14.80;61.90;;;;;;5040289;28;20029;-86
2023/06/04 06:50:49;;;;;;;835.75;775.83;;;14.80;61.60;;;;;;5037357;28;20040;-87
2023/06/04 06:53:14;;;;;;;753.42;697.65;;;14.90;61.80;;;;;;5029441;28;20030;-88
2023/06/04 06:55:40;;;;;;;838.92;778.15;;;15.10;61.60;;;;;;5036861;28;20037;-87
2023/06/04 06:58:06;;;;;;;826.65;766.50;;;15.40;61.50;;;;;;5041268;28;20082;-86
2023/06/04 07:00:31;;;;;;;1289.68;767.28;;;15.50;60.40;;;;;;5018460;28;20087;-87
2023/06/04 07:02:57;;;;;;;732.05;677.60;;;15.50;60.20;;;;;;5039199;28;20409;-86
2023/06/04 07:05:23;;;;;;;806.53;745.60;;;15.50;60.80;;;;;;5036617;28;20025;-87
2023/06/04 07:07:48;;;;;;;664.50;613.35;;;15.50;60.60;;;;;;5035503;28;20532;-88
2023/06/04 07:10:14;;;;;;;1603.70;844.88;;;15.60;60.60;;;;;;5036854;28;20040;-87
2023/06/04 07:12:40;;;;;;;781.22;507.35;;;15.70;58.90;;;;;;5046656;28;20485;-88
2023/06/04 07:15:08;;;;;;;1999.90;999.90;;;15.90;59.70;;;;;;5018695;28;20487;-86
2023/06/04 07:17:34;;;;;;;328.98;301.92;;;16.20;59.20;;;;;;5035682;28;20029;-86
2023/06/04 07:20:00;;;;;;;1999.90;999.90;;;16.30;58.80;;;;;;5032137;28;20072;-86
2023/06/04 07:22:26;;;;;;;1999.90;999.90;;;16.30;57.60;;;;;;5039559;28;20105;-87
2023/06/04 07:24:51;;;;;;;1999.90;999.90;;;16.50;59.20;;;;;;5033744;28;20155;-86
2023/06/04 07:27:18;;;;;;;1999.90;999.90;;;16.60;57.40;;;;;;5035543;28;20029;-88
2023/06/04 07:29:45;;;;;;;1999.90;999.90;;;16.70;57.30;;;;;;5031514;28;20037;-86
2023/06/04 07:32:11;;;;;;;1999.90;999.90;;;16.70;57.20;;;;;;5030566;28;20033;-86
2023/06/04 07:34:38;;;;;;;1999.90;999.90;;;16.60;57.40;;;;;;5034624;28;20032;-86
2023/06/04 07:37:04;;;;;;;1999.90;999.90;;;16.60;57.60;;;;;;5035791;28;20029;-87
2023/06/04 07:39:29;;;;;;;1999.90;999.90;;;16.50;56.40;;;;;;5032957;28;20025;-86
2023/06/04 07:41:55;;;;;;;1999.90;999.90;;;16.60;57.10;;;;;;5035282;28;20038;-86
2023/06/04 07:44:21;;;;;;;1999.90;999.90;;;16.90;57.10;;;;;;5032934;28;20443;-87
2023/06/04 07:46:46;;;;;;;1999.90;999.90;;;17.10;56.60;;;;;;5019788;28;20408;-85
2023/06/04 07:49:12;;;;;;;1999.90;999.90;;;17.20;55.20;;;;;;5035178;28;20468;-86
2023/06/04 07:51:38;;;;;;;1999.90;999.90;;;17.30;55.90;;;;;;5036970;28;20025;-87
2023/06/04 07:54:03;;;;;;;1999.90;999.90;;;17.20;54.80;;;;;;5035237;28;20406;-86
2023/06/04 07:56:29;;;;;;;1999.90;999.90;;;17.30;54.90;;;;;;5030488;28;20026;-87
2023/06/04 07:58:55;;;;;;;1999.90;999.90;;;17.40;53.60;;;;;;5033378;28;20034;-86
2023/06/04 08:01:21;;;;;;;1999.90;999.90;;;17.60;52.80;;;;;;5036716;28;20098;-86
2023/06/04 08:03:47;;;;;;;1999.90;999.90;;;17.70;54.00;;;;;;5032863;28;20112;-86
2023/06/04 08:06:16;;;;;;;1999.90;999.90;;;17.80;54.50;;;;;;5038020;28;20477;-87
2023/06/04 08:08:48;;;;;;;1999.90;999.90;;;18.00;53.80;;;;;;5014392;28;20412;-85
2023/06/04 08:11:14;;;;;;;1999.90;999.90;;;18.10;53.20;;;;;;5033205;28;20028;-87
2023/06/04 08:13:40;;;;;;;1999.90;999.90;;;18.20;53.30;;;;;;5032959;28;20026;-87
2023/06/04 08:16:07;;;;;;;1999.90;999.90;;;18.40;54.30;;;;;;5035352;28;20496;-87
2023/06/04 08:18:32;;;;;;;1999.90;999.90;;;18.60;51.20;;;;;;5037563;28;20499;-87
2023/06/04 08:20:58;;;;;;;1999.90;999.90;;;18.90;52.10;;;;;;5032081;28;20054;-85
2023/06/04 08:23:24;;;;;;;1999.90;999.90;;;19.00;50.40;;;;;;5029725;28;20104;-88
2023/06/04 08:25:50;;;;;;;1999.90;999.90;;;19.10;52.20;;;;;;5036865;28;20060;-86
2023/06/04 08:28:16;;;;;;;1999.90;999.90;;;19.30;49.90;;;;;;5032281;28;20030;-88
2023/06/04 08:30:45;;;;;;;1999.90;999.90;;;19.30;50.80;;;;;;5034601;28;20108;-87
2023/06/04 08:33:11;;;;;;;1999.90;999.90;;;19.40;50.50;;;;;;5030678;28;20411;-86
2023/06/04 08:35:36;;;;;;;1999.90;999.90;;;19.20;49.60;;;;;;5033376;28;20022;-89
2023/06/04 08:38:02;;;;;;;1999.90;999.90;;;19.30;48.90;;;;;;5033552;28;20036;-87
2023/06/04 08:40:28;;;;;;;1999.90;999.90;;;19.20;49.40;;;;;;5069618;28;20405;-86
2023/06/04 08:42:59;;;;;;;1999.90;999.90;;;19.40;51.10;;;;;;5014202;28;20041;-86
2023/06/04 08:45:28;;;;;;;1999.90;999.90;;;19.90;49.20;;;;;;5043047;28;20029;-86
2023/06/04 08:47:54;;;;;;;1999.90;999.90;;;20.00;49.70;;;;;;5033855;28;20029;-87
2023/06/04 08:50:24;;;;;;;1999.90;999.90;;;20.20;48.00;;;;;;5035812;28;20612;-86
2023/06/04 08:52:54;;;;;;;1999.90;999.90;;;20.40;48.00;;;;;;5034279;28;20061;-87
2023/06/04 08:55:20;;;;;;;;;;;20.50;47.10;;;;;;5049815;28;20034;-86
2023/06/04 08:57:49;;;;;;;1999.90;999.90;;;20.40;45.40;;;;;;5038273;28;19935;-87
2023/06/04 09:00:16;;;;;;;1999.90;999.90;;;20.60;45.70;;;;;;5032339;28;20148;-86
2023/06/04 09:02:43;;;;;;;1999.90;999.90;;;20.80;46.90;;;;;;5035471;28;20029;-86
2023/06/04 09:05:10;;;;;;;1999.90;999.90;;;21.10;45.10;;;;;;5037778;28;20033;-86
2023/06/04 09:07:42;;;;;;;1999.90;999.90;;;21.30;45.90;;;;;;5038594;28;20029;-86
2023/06/04 09:10:12;;;;;;;1999.90;999.90;;;21.10;43.50;;;;;;5040897;28;20031;-85
2023/06/04 09:12:43;;;;;;;1999.90;999.90;;;21.30;47.50;;;;;;5041496;28;20060;-83
2023/06/04 09:15:09;;;;;;;1999.90;999.90;;;21.20;44.00;;;;;;5036055;28;20025;-84
2023/06/04 09:17:35;;;;;;;1999.90;999.90;;;21.20;44.80;;;;;;5046523;28;20030;-85
2023/06/04 09:20:00;;;;;;;1999.90;999.90;;;21.30;43.50;;;;;;5036716;28;20430;-84
2023/06/04 09:22:36;;;;;;;1999.90;999.90;;;21.20;43.00;;;;;;5024273;28;20064;-84
2023/06/04 09:25:07;;;;;;;1999.90;999.90;;;21.60;41.30;;;;;;5042472;28;20021;-85
2023/06/04 09:27:39;;;;;;;;;;;21.90;43.30;;;;;;5037419;28;20438;-85
2023/06/04 09:30:08;;;;;;;1999.90;999.90;;;22.00;41.40;;;;;;5043581;28;19913;-84
2023/06/04 09:32:34;;;;;;;1999.90;999.90;;;22.30;41.40;;;;;;5039896;28;20025;-84
2023/06/04 09:35:13;;;;;;;1999.90;999.90;;;22.30;42.20;;;;;;5018876;28;20116;-84
2023/06/04 09:37:41;;;;;;;1999.90;999.90;;;22.20;38.80;;;;;;5042631;28;20139;-84
2023/06/04 09:40:08;;;;;;;1999.90;999.90;;;22.60;43.00;;;;;;5036183;28;20112;-83
2023/06/04 09:42:53;;;;;;;1999.90;999.90;;;22.90;41.00;;;;;;5041865;28;20133;-84
2023/06/04 09:45:33;;;;;;;1999.90;999.90;;;22.30;38.80;;;;;;5038278;28;20120;-84
2023/06/04 09:47:59;;;;;;;1999.90;999.90;;;22.20;38.00;;;;;;5037338;28;20108;-84
2023/06/04 09:50:37;;;;;;;1999.90;999.90;;;22.70;40.50;;;;;;5041946;28;20469;-83
2023/06/04 09:53:13;;;;;;;1999.90;999.90;;;23.10;40.50;;;;;;5028468;28;20025;-84
2023/06/04 09:55:39;;;;;;;1999.90;999.90;;;23.00;41.20;;;;;;5040524;28;20017;-84
2023/06/04 09:58:05;;;;;;;1999.90;999.90;;;23.20;36.70;;;;;;5037300;28;20042;-86
2023/06/04 10:00:31;;;;;;;1999.90;999.90;;;23.30;39.10;;;;;;5035775;28;20026;-84
2023/06/04 10:03:01;;;;;;;1999.90;999.90;;;23.50;37.60;;;;;;5039682;28;20037;-85
2023/06/04 10:05:31;;;;;;;1999.90;999.90;;;22.70;36.50;;;;;;5037615;28;20052;-84
2023/06/04 10:08:02;;;;;;;1999.90;999.90;;;23.10;36.90;;;;;;5037809;28;20069;-85
2023/06/04 10:10:28;;;;;;;1999.90;999.90;;;22.60;38.10;;;;;;5024244;28;20041;-84
2023/06/04 10:13:10;;;;;;;1999.90;999.90;;;22.90;37.90;;;;;;5030274;28;20072;-85
2023/06/04 10:15:36;;;;;;;1999.90;999.90;;;23.70;39.60;;;;;;5039180;28;20111;-84
2023/06/04 10:18:03;;;;;;;1999.90;999.90;;;23.50;37.20;;;;;;5036595;28;20428;-84
2023/06/04 10:20:29;;;;;;;1999.90;999.90;;;23.40;35.70;;;;;;5040951;28;20081;-83
2023/06/04 10:22:55;;;;;;;1999.90;999.90;;;23.30;33.50;;;;;;5042451;28;20034;-84
2023/06/04 10:25:21;;;;;;;1999.90;999.90;;;23.70;33.70;;;;;;5056272;28;20111;-84
2023/06/04 10:27:47;;;;;;;1999.90;999.90;;;23.70;34.80;;;;;;5037589;28;20029;-85
2023/06/04 10:30:13;;;;;;;1999.90;999.90;;;23.40;36.00;;;;;;5042280;28;20049;-84
2023/06/04 10:32:40;;;;;;;1999.90;999.90;;;24.10;36.40;;;;;;5042239;28;20029;-85
2023/06/04 10:35:09;;;;;;;1999.90;999.90;;;24.30;34.00;;;;;;5040688;28;20033;-84
2023/06/04 10:37:35;;;;;;;1999.90;999.90;;;24.20;32.60;;;;;;5042446;28;20496;-84
2023/06/04 10:40:01;;;;;;;1999.90;999.90;;;23.90;33.00;;;;;;5039585;28;20044;-84
2023/06/04 10:42:41;;;;;;;1999.90;999.90;;;24.00;33.90;;;;;;5047391;28;20033;-84
2023/06/04 10:45:08;;;;;;;1999.90;999.90;;;24.20;30.70;;;;;;5039968;28;20030;-84
2023/06/04 10:47:37;;;;;;;1999.90;999.90;;;24.30;34.20;;;;;;5029244;28;20033;-84
2023/06/04 10:50:11;;;;;;;1999.90;999.90;;;24.50;32.60;;;;;;5036954;28;20030;-84
2023/06/04 10:52:38;;;;;;;1999.90;999.90;;;24.80;30.40;;;;;;5043200;28;20052;-84
2023/06/04 10:55:05;;;;;;;1999.90;999.90;;;24.50;29.40;;;;;;5021305;28;20495;-84
2023/06/04 10:57:31;;;;;;;1999.90;999.90;;;25.30;29.90;;;;;;5037333;28;20037;-83
2023/06/04 10:59:59;;;;;;;1999.90;999.90;;;25.20;28.30;;;;;;5042662;28;20121;-83
2023/06/04 11:02:25;;;;;;;1999.90;999.90;;;25.60;26.80;;;;;;5033894;28;20037;-83
2023/06/04 11:05:06;;;;;;;1999.90;999.90;;;25.60;27.60;;;;;;5036372;28;20037;-84
2023/06/04 11:07:46;;;;;;;1999.90;999.90;;;25.90;27.90;;;;;;5040579;28;20029;-84
2023/06/04 11:10:13;;;;;;;1999.90;999.90;;;26.20;28.00;;;;;;5042570;28;20033;-84
2023/06/04 11:12:57;;;;;;;1999.90;999.90;;;26.90;29.20;;;;;;5037932;28;20515;-86
2023/06/04 11:15:22;;;;;;;1999.90;999.90;;;28.00;27.70;;;;;;5033637;28;20116;-84
2023/06/04 11:17:52;;;;;;;1999.90;999.90;;;27.00;27.30;;;;;;5036479;28;20155;-83
2023/06/04 11:20:23;;;;;;;1999.90;999.90;;;25.50;29.50;;;;;;5032834;28;20048;-84
2023/06/04 11:22:56;;;;;;;1999.90;999.90;;;25.40;30.00;;;;;;5038142;28;20524;-85
2023/06/04 11:25:26;;;;;;;1999.90;999.90;;;26.40;30.10;;;;;;5038866;28;20485;-85
2023/06/04 11:27:55;;;;;;;1999.90;999.90;;;27.10;28.80;;;;;;5036888;28;20497;-86
2023/06/04 11:30:22;;;;;;;1999.90;999.90;;;27.00;26.10;;;;;;5024889;28;20030;-84
2023/06/04 11:32:48;;;;;;;1999.90;999.90;;;27.90;26.00;;;;;;5021956;28;20022;-84
2023/06/04 11:35:13;;;;;;;1999.90;999.90;;;28.00;25.70;;;;;;5036509;28;20025;-83
2023/06/04 11:37:40;;;;;;;1999.90;999.90;;;27.90;24.10;;;;;;5036756;28;20048;-84
2023/06/04 11:40:19;;;;;;;1999.90;999.90;;;28.50;25.20;;;;;;5039629;28;20382;-82
2023/06/04 11:42:47;;;;;;;1999.90;999.90;;;27.90;25.10;;;;;;5038333;28;20076;-84
2023/06/04 11:45:14;;;;;;;1999.90;999.90;;;28.30;24.90;;;;;;5045019;28;20052;-84
2023/06/04 11:47:44;;;;;;;1999.90;999.90;;;28.80;25.40;;;;;;5036089;28;20040;-84
2023/06/04 11:50:11;;;;;;;1999.90;999.90;;;28.60;24.20;;;;;;5039111;28;20040;-83
2023/06/04 11:52:37;;;;;;;1999.90;999.90;;;28.90;23.90;;;;;;5040086;28;20159;-84
2023/06/04 11:55:03;;;;;;;1999.90;999.90;;;29.60;23.20;;;;;;5035155;28;20378;-83
2023/06/04 11:57:30;;;;;;;1999.90;999.90;;;29.30;24.00;;;;;;5033998;28;20029;-83
2023/06/04 11:59:55;;;;;;;1999.90;999.90;;;28.80;25.70;;;;;;5036573;28;20191;-83
2023/06/04 12:02:21;;;;;;;1999.90;999.90;;;29.80;24.90;;;;;;5014540;28;20129;-83
2023/06/04 12:04:47;;;;;;;1999.90;999.90;;;30.70;24.70;;;;;;5022980;28;20037;-84